Time;durP1;ratioP1;P1;durP2;ratioP2;P2;SDS_P1;SDS_P2;PMS_P1;PMS_P2;Temp;Humidity;BMP_temperature;BMP_pressure;BME280_temperature;BME280_humidity;BME280_pressure;Samples;Min_cycle;Max_cycle;Signal;HPM_P1;HPM_P2
2023/06/17 00:01:18;;;;;;;26.80;23.98;;;17.10;98.30;;;;;;5054253;28;20137;-54
2023/06/17 00:03:45;;;;;;;25.73;22.92;;;17.10;98.40;;;;;;5054155;28;20048;-51
2023/06/17 00:06:12;;;;;;;26.20;23.52;;;17.10;98.50;;;;;;5054355;28;20047;-53
2023/06/17 00:08:38;;;;;;;24.00;21.20;;;17.00;98.60;;;;;;5052811;28;20134;-51
2023/06/17 00:11:05;;;;;;;25.33;22.92;;;17.00;98.60;;;;;;5054172;28;20087;-48
2023/06/17 00:13:32;;;;;;;25.88;23.25;;;17.00;98.60;;;;;;5053679;28;20087;-49
2023/06/17 00:16:00;;;;;;;27.85;24.00;;;16.90;98.60;;;;;;5053844;28;20033;-50
2023/06/17 00:18:28;;;;;;;27.63;24.52;;;16.90;98.60;;;;;;5053867;28;20045;-49
2023/06/17 00:20:57;;;;;;;32.58;29.02;;;16.90;98.70;;;;;;5053958;28;20037;-50
2023/06/17 00:23:25;;;;;;;29.23;26.05;;;16.80;98.80;;;;;;5053555;28;20147;-49
2023/06/17 00:25:52;;;;;;;30.50;27.20;;;16.80;98.90;;;;;;5053760;28;20053;-52
2023/06/17 00:28:18;;;;;;;30.13;25.45;;;16.70;98.90;;;;;;5053924;28;20036;-52
2023/06/17 00:30:46;;;;;;;28.55;25.38;;;16.70;99.00;;;;;;5052427;28;20045;-51
2023/06/17 00:33:13;;;;;;;25.55;22.92;;;16.70;99.10;;;;;;5053655;28;20049;-53
2023/06/17 00:35:40;;;;;;;26.38;23.77;;;16.70;98.90;;;;;;5053703;28;20043;-51
2023/06/17 00:38:07;;;;;;;26.60;23.92;;;16.70;98.90;;;;;;5053235;28;20037;-49
2023/06/17 00:40:33;;;;;;;27.55;24.38;;;16.70;98.80;;;;;;5052639;28;20037;-52
2023/06/17 00:43:00;;;;;;;27.83;23.23;;;16.70;98.70;;;;;;5052263;28;20110;-54
2023/06/17 00:45:27;;;;;;;24.48;21.55;;;16.70;98.70;;;;;;5052292;28;20041;-49
2023/06/17 00:47:54;;;;;;;24.40;21.83;;;16.70;98.70;;;;;;5052209;28;20148;-54
2023/06/17 00:50:21;;;;;;;24.95;22.25;;;16.60;98.90;;;;;;5053041;28;20072;-54
2023/06/17 00:52:48;;;;;;;26.85;23.95;;;16.50;98.90;;;;;;5052370;28;20103;-52
2023/06/17 00:55:15;;;;;;;27.10;23.20;;;16.40;99.20;;;;;;5053331;28;20037;-53
2023/06/17 00:57:42;;;;;;;27.75;24.95;;;16.40;99.30;;;;;;5052010;28;20041;-49
2023/06/17 01:00:10;;;;;;;27.40;24.48;;;16.40;99.30;;;;;;5051927;28;20049;-52
2023/06/17 01:02:43;;;;;;;28.17;25.33;;;16.40;99.30;;;;;;5053167;28;20041;-52
2023/06/17 01:05:11;;;;;;;28.02;25.15;;;16.30;99.40;;;;;;5053506;28;20159;-49
2023/06/17 01:07:40;;;;;;;29.42;26.17;;;16.30;99.40;;;;;;5053404;28;20040;-49
2023/06/17 01:10:07;;;;;;;29.42;24.00;;;16.30;99.40;;;;;;5053265;28;20443;-54
2023/06/17 01:12:34;;;;;;;27.80;24.92;;;16.30;99.40;;;;;;5051682;28;20048;-52
2023/06/17 01:15:03;;;;;;;26.33;23.75;;;16.30;99.40;;;;;;5053159;28;20045;-52
2023/06/17 01:17:30;;;;;;;28.27;25.10;;;16.30;99.40;;;;;;5051704;28;20033;-49
2023/06/17 01:19:57;;;;;;;27.83;25.13;;;16.20;99.40;;;;;;5051784;28;20049;-52
2023/06/17 01:22:25;;;;;;;26.30;23.40;;;16.20;99.50;;;;;;5052889;28;20599;-52
2023/06/17 01:24:51;;;;;;;30.45;23.88;;;16.20;99.50;;;;;;5053216;28;20102;-51
2023/06/17 01:27:18;;;;;;;27.13;24.20;;;16.10;99.60;;;;;;5053005;28;20048;-47
2023/06/17 01:29:48;;;;;;;24.98;22.27;;;16.10;99.60;;;;;;5052907;28;20045;-53
2023/06/17 01:32:15;;;;;;;28.10;22.35;;;16.10;99.60;;;;;;5051131;28;20048;-52
2023/06/17 01:34:42;;;;;;;22.20;19.80;;;16.00;99.40;;;;;;5052761;28;20373;-51
2023/06/17 01:37:09;;;;;;;22.15;19.95;;;15.90;99.70;;;;;;5052732;28;20439;-52
2023/06/17 01:39:36;;;;;;;21.63;19.33;;;15.90;99.50;;;;;;5051350;28;20085;-51
2023/06/17 01:42:03;;;;;;;21.50;19.08;;;15.90;99.40;;;;;;5052605;28;20044;-48
2023/06/17 01:44:29;;;;;;;21.20;19.05;;;15.90;99.20;;;;;;5051594;28;20047;-53
2023/06/17 01:46:56;;;;;;;24.08;20.33;;;15.90;99.50;;;;;;5051422;28;20055;-51
2023/06/17 01:49:23;;;;;;;21.60;19.40;;;15.90;99.20;;;;;;5064701;28;20049;-51
2023/06/17 01:51:50;;;;;;;22.45;19.88;;;15.90;99.10;;;;;;5054904;28;20056;-51
2023/06/17 01:54:17;;;;;;;21.08;19.08;;;15.80;99.10;;;;;;5055243;28;20049;-49
2023/06/17 01:56:43;;;;;;;21.08;18.88;;;15.80;99.20;;;;;;5055762;28;20067;-51
2023/06/17 01:59:10;;;;;;;25.70;21.35;;;15.80;99.20;;;;;;5054975;28;20127;-53
2023/06/17 02:01:37;;;;;;;23.63;21.17;;;15.80;99.40;;;;;;5055581;28;20068;-48
2023/06/17 02:04:04;;;;;;;27.08;21.65;;;15.70;99.60;;;;;;5056317;28;20041;-48
2023/06/17 02:06:31;;;;;;;25.10;22.40;;;15.70;99.80;;;;;;5055373;28;20041;-47
2023/06/17 02:08:58;;;;;;;27.58;24.67;;;15.60;99.90;;;;;;5055264;28;20053;-49
2023/06/17 02:11:25;;;;;;;27.00;24.25;;;15.60;99.90;;;;;;5056464;28;20045;-50
2023/06/17 02:13:52;;;;;;;27.65;24.73;;;15.60;99.90;;;;;;5055076;28;20055;-52
2023/06/17 02:16:19;;;;;;;28.10;25.13;;;15.60;99.90;;;;;;5055062;28;20033;-49
2023/06/17 02:18:47;;;;;;;28.02;25.10;;;15.60;99.90;;;;;;5055103;28;20055;-49
2023/06/17 02:21:14;;;;;;;26.33;23.55;;;15.50;99.90;;;;;;5054881;28;20037;-52
2023/06/17 02:23:42;;;;;;;26.27;23.70;;;15.50;99.90;;;;;;5054832;28;20069;-52
2023/06/17 02:26:08;;;;;;;25.83;23.10;;;15.50;99.90;;;;;;5056434;28;20567;-52
2023/06/17 02:28:35;;;;;;;26.35;23.73;;;15.50;99.90;;;;;;5055986;28;20052;-47
2023/06/17 02:31:03;;;;;;;26.17;23.58;;;15.40;99.90;;;;;;5055015;28;20044;-52
2023/06/17 02:33:32;;;;;;;28.55;24.02;;;15.40;99.90;;;;;;5054215;28;20095;-49
2023/06/17 02:35:59;;;;;;;28.63;25.63;;;15.40;99.90;;;;;;5055981;28;20041;-46
2023/06/17 02:38:26;;;;;;;29.08;25.98;;;15.30;99.90;;;;;;5054643;28;20045;-49
2023/06/17 02:40:54;;;;;;;26.92;24.13;;;15.30;99.90;;;;;;5054359;28;20095;-49
2023/06/17 02:43:21;;;;;;;26.52;23.92;;;15.30;99.90;;;;;;5055826;28;20137;-53
2023/06/17 02:45:48;;;;;;;26.75;22.92;;;15.30;99.90;;;;;;5054541;28;20132;-51
2023/06/17 02:48:15;;;;;;;26.52;23.73;;;15.30;99.90;;;;;;5055912;28;20053;-51
2023/06/17 02:50:41;;;;;;;27.65;24.75;;;15.30;99.90;;;;;;5055277;28;20087;-48
2023/06/17 02:53:08;;;;;;;27.58;23.92;;;15.30;99.90;;;;;;5054251;28;20045;-51
2023/06/17 02:55:35;;;;;;;24.20;21.80;;;15.20;99.90;;;;;;5070332;28;20167;-50
2023/06/17 02:58:15;;;;;;;22.70;20.15;;;15.20;99.90;;;;;;5054301;28;20061;-53
2023/06/17 03:00:45;;;;;;;22.15;19.60;;;15.20;99.90;;;;;;5054275;28;20156;-53
2023/06/17 03:03:11;;;;;;;21.55;19.35;;;15.20;99.90;;;;;;5034579;28;20511;-53
2023/06/17 03:05:38;;;;;;;21.63;19.48;;;15.10;99.90;;;;;;5049238;28;20049;-47
2023/06/17 03:08:09;;;;;;;20.05;17.95;;;15.10;99.90;;;;;;5061034;28;20057;-53
2023/06/17 03:10:35;;;;;;;20.40;18.17;;;15.10;99.90;;;;;;5047916;28;20053;-52
2023/06/17 03:13:08;;;;;;;20.10;17.92;;;15.10;99.90;;;;;;5054196;28;20045;-49
2023/06/17 03:15:37;;;;;;;20.77;18.20;;;15.00;99.90;;;;;;5053620;28;20099;-53
2023/06/17 03:18:05;;;;;;;18.42;16.63;;;15.00;99.90;;;;;;5053903;28;20045;-49
2023/06/17 03:20:33;;;;;;;20.35;15.45;;;15.00;99.90;;;;;;5053582;28;20095;-52
2023/06/17 03:23:02;;;;;;;17.98;14.55;;;15.00;99.90;;;;;;5053570;28;20037;-53
2023/06/17 03:25:30;;;;;;;17.88;16.02;;;14.90;99.90;;;;;;5053518;28;20049;-51
2023/06/17 03:28:00;;;;;;;18.85;15.45;;;14.90;99.90;;;;;;5053822;28;20041;-48
2023/06/17 03:30:29;;;;;;;18.10;14.90;;;14.90;99.90;;;;;;5053833;28;20045;-51
2023/06/17 03:32:59;;;;;;;16.73;14.98;;;14.90;99.90;;;;;;5053308;28;20041;-48
2023/06/17 03:35:26;;;;;;;18.95;16.80;;;14.80;99.90;;;;;;5054648;28;20043;-49
2023/06/17 03:37:53;;;;;;;19.50;14.93;;;14.80;99.90;;;;;;5053743;28;20044;-51
2023/06/17 03:40:19;;;;;;;16.98;15.18;;;14.80;99.90;;;;;;5053461;28;20127;-53
2023/06/17 03:42:47;;;;;;;18.13;15.40;;;14.70;99.90;;;;;;5052159;28;20043;-53
2023/06/17 03:45:14;;;;;;;16.50;14.60;;;14.70;99.90;;;;;;5054931;28;20377;-49
2023/06/17 03:47:41;;;;;;;18.05;15.50;;;14.60;99.90;;;;;;5053215;28;20047;-54
2023/06/17 03:50:09;;;;;;;18.48;15.63;;;14.60;99.90;;;;;;5053400;28;20045;-54
2023/06/17 03:52:35;;;;;;;16.60;14.95;;;14.60;99.90;;;;;;5052654;28;20048;-46
2023/06/17 03:55:03;;;;;;;16.98;15.18;;;14.60;99.90;;;;;;5053217;28;20045;-55
2023/06/17 03:57:30;;;;;;;15.50;13.95;;;14.60;99.90;;;;;;5053490;28;20373;-50
2023/06/17 03:59:57;;;;;;;15.70;13.52;;;14.60;99.90;;;;;;5053122;28;20059;-53
2023/06/17 04:02:23;;;;;;;16.20;14.02;;;14.60;99.90;;;;;;5053094;28;20041;-54
2023/06/17 04:04:52;;;;;;;15.88;13.32;;;14.60;99.90;;;;;;5053036;28;20443;-54
2023/06/17 04:07:22;;;;;;;14.15;12.60;;;14.60;99.90;;;;;;5053011;28;20037;-55
2023/06/17 04:09:51;;;;;;;14.25;12.27;;;14.60;99.90;;;;;;5052889;28;20047;-54
2023/06/17 04:12:23;;;;;;;14.30;12.52;;;14.60;99.90;;;;;;5054066;28;20045;-50
2023/06/17 04:14:50;;;;;;;14.25;12.77;;;14.60;99.90;;;;;;5052580;28;20095;-48
2023/06/17 04:17:17;;;;;;;16.88;12.73;;;14.60;99.90;;;;;;5052737;28;20480;-51
2023/06/17 04:19:44;;;;;;;13.15;11.85;;;14.60;99.80;;;;;;5053123;28;20040;-55
2023/06/17 04:22:11;;;;;;;14.63;11.90;;;14.70;99.70;;;;;;5053969;28;20116;-50
2023/06/17 04:24:38;;;;;;;14.02;11.02;;;14.70;99.60;;;;;;5052747;28;20048;-53
2023/06/17 04:27:06;;;;;;;13.70;11.52;;;14.80;99.50;;;;;;5054205;28;20045;-59
2023/06/17 04:29:34;;;;;;;12.82;11.25;;;14.80;99.50;;;;;;5052889;28;20037;-51
2023/06/17 04:32:02;;;;;;;13.98;12.20;;;14.80;99.50;;;;;;5053654;28;20515;-53
2023/06/17 04:34:31;;;;;;;13.02;10.95;;;14.90;99.40;;;;;;5052672;28;20063;-54
2023/06/17 04:36:58;;;;;;;12.65;11.27;;;15.00;99.40;;;;;;5052821;28;20095;-53
2023/06/17 04:39:29;;;;;;;14.05;11.80;;;15.10;99.30;;;;;;5052685;28;20418;-53
2023/06/17 04:41:56;;;;;;;13.15;11.07;;;15.20;99.40;;;;;;5052321;28;20075;-53
2023/06/17 04:44:23;;;;;;;13.00;10.57;;;15.30;99.10;;;;;;5052440;28;20399;-57
2023/06/17 04:46:50;;;;;;;11.68;10.38;;;15.50;98.80;;;;;;5052227;28;20053;-53
2023/06/17 04:49:18;;;;;;;11.60;10.40;;;15.70;98.90;;;;;;5052184;28;20144;-52
2023/06/17 04:51:45;;;;;;;13.48;10.65;;;15.90;98.40;;;;;;5051784;28;20049;-55
2023/06/17 04:54:11;;;;;;;12.35;10.93;;;16.00;98.20;;;;;;5051852;28;20488;-51
2023/06/17 04:56:40;;;;;;;12.88;11.07;;;16.10;97.90;;;;;;5053531;28;20041;-48
2023/06/17 04:59:07;;;;;;;15.02;11.27;;;16.20;97.90;;;;;;5051738;28;20052;-54
2023/06/17 05:01:34;;;;;;;12.35;10.95;;;16.30;97.70;;;;;;5052327;28;20149;-51
2023/06/17 05:04:03;;;;;;;12.60;11.27;;;16.40;97.60;;;;;;5051829;28;20043;-51
2023/06/17 05:06:31;;;;;;;13.65;11.45;;;16.50;97.60;;;;;;5052112;28;20492;-53
2023/06/17 05:08:59;;;;;;;14.07;11.30;;;16.50;97.60;;;;;;5051956;28;20041;-51
2023/06/17 05:11:26;;;;;;;13.80;10.93;;;16.50;97.50;;;;;;5051931;28;20060;-49
2023/06/17 05:13:53;;;;;;;13.75;11.25;;;16.50;97.70;;;;;;5051738;28;20041;-48
2023/06/17 05:16:20;;;;;;;15.82;11.27;;;16.60;97.40;;;;;;5052820;28;20381;-49
2023/06/17 05:18:47;;;;;;;11.25;10.00;;;16.60;97.50;;;;;;5051756;28;20071;-47
2023/06/17 05:21:14;;;;;;;12.57;9.40;;;16.60;97.40;;;;;;5051807;28;20049;-50
2023/06/17 05:23:42;;;;;;;11.52;10.20;;;16.70;97.20;;;;;;5051365;28;20037;-48
2023/06/17 05:26:09;;;;;;;11.20;8.88;;;16.60;97.20;;;;;;5050612;28;20048;-54
2023/06/17 05:28:36;;;;;;;13.20;9.55;;;16.60;97.30;;;;;;5051691;28;20083;-49
2023/06/17 05:31:03;;;;;;;11.70;9.77;;;16.60;97.00;;;;;;5051778;28;20052;-54
2023/06/17 05:33:30;;;;;;;12.95;9.45;;;16.60;97.20;;;;;;5051342;28;20091;-51
2023/06/17 05:36:00;;;;;;;13.73;9.43;;;16.60;97.30;;;;;;5051077;28;20068;-45
2023/06/17 05:38:28;;;;;;;12.80;8.88;;;16.60;97.30;;;;;;5052901;28;20141;-50
2023/06/17 05:40:55;;;;;;;11.27;8.98;;;16.70;97.30;;;;;;5051566;28;20045;-47
2023/06/17 05:43:22;;;;;;;13.10;8.57;;;16.70;97.20;;;;;;5051427;28;20115;-53
2023/06/17 05:45:50;;;;;;;13.50;8.38;;;16.70;97.10;;;;;;5051339;28;20095;-52
2023/06/17 05:48:17;;;;;;;10.20;8.27;;;16.80;97.10;;;;;;5052729;28;20147;-53
2023/06/17 05:50:44;;;;;;;8.25;7.40;;;16.80;97.10;;;;;;5050807;28;20053;-46
2023/06/17 05:53:12;;;;;;;12.05;7.57;;;16.80;97.10;;;;;;5050839;28;20053;-49
2023/06/17 05:55:39;;;;;;;8.85;6.80;;;16.90;97.10;;;;;;5052592;28;20408;-54
2023/06/17 05:58:07;;;;;;;7.97;6.75;;;16.90;96.90;;;;;;5051025;28;20997;-51
2023/06/17 06:00:37;;;;;;;9.25;6.40;;;16.80;96.90;;;;;;5051300;28;20065;-54
2023/06/17 06:03:04;;;;;;;10.23;6.82;;;16.80;97.10;;;;;;5052293;28;20041;-48
2023/06/17 06:05:31;;;;;;;9.70;6.10;;;16.90;97.10;;;;;;5051166;28;20090;-49
2023/06/17 06:07:59;;;;;;;10.50;6.22;;;16.90;96.80;;;;;;5051230;28;20052;-49
2023/06/17 06:10:28;;;;;;;9.15;5.93;;;16.90;96.90;;;;;;5052947;28;20045;-51
2023/06/17 06:12:59;;;;;;;10.65;6.32;;;16.90;97.00;;;;;;5051122;28;20045;-54
2023/06/17 06:15:27;;;;;;;9.98;6.35;;;17.00;96.90;;;;;;5051465;28;20064;-49
2023/06/17 06:17:54;;;;;;;9.00;6.70;;;17.00;96.80;;;;;;5051016;28;20080;-53
2023/06/17 06:20:21;;;;;;;12.93;6.75;;;17.10;96.70;;;;;;5034474;28;20048;-52
2023/06/17 06:22:48;;;;;;;10.48;6.00;;;17.10;96.70;;;;;;5067432;28;20045;-50
2023/06/17 06:25:15;;;;;;;10.93;6.50;;;17.10;96.80;;;;;;5052328;28;20037;-49
2023/06/17 06:27:42;;;;;;;9.70;6.35;;;17.10;96.80;;;;;;5051204;28;20041;-54
2023/06/17 06:30:09;;;;;;;6.88;5.82;;;17.20;96.80;;;;;;5067232;28;20136;-52
2023/06/17 06:32:39;;;;;;;8.65;6.50;;;17.20;96.70;;;;;;5050834;28;20131;-54
2023/06/17 06:35:09;;;;;;;8.82;6.90;;;17.30;96.60;;;;;;5050938;28;20408;-53
2023/06/17 06:37:36;;;;;;;9.02;6.18;;;17.30;96.80;;;;;;5053924;28;20045;-52
2023/06/17 06:40:05;;;;;;;8.65;6.45;;;17.40;96.60;;;;;;5054623;28;20048;-51
2023/06/17 06:42:35;;;;;;;10.43;6.38;;;17.50;96.50;;;;;;5054472;28;20072;-54
2023/06/17 06:45:20;;;;;;;11.13;6.07;;;17.50;96.50;;;;;;5054547;28;20045;-49
2023/06/17 06:47:47;;;;;;;7.50;5.97;;;17.60;96.50;;;;;;5055633;28;20135;-53
2023/06/17 06:50:14;;;;;;;7.35;5.93;;;17.70;96.40;;;;;;5054217;28;20554;-50
2023/06/17 06:52:41;;;;;;;8.90;6.07;;;17.80;96.40;;;;;;5053687;28;20044;-54
2023/06/17 06:55:08;;;;;;;9.70;5.60;;;17.90;96.30;;;;;;5054212;28;20041;-52
2023/06/17 06:57:37;;;;;;;10.15;5.68;;;18.00;96.30;;;;;;5054531;28;20122;-48
2023/06/17 07:00:08;;;;;;;14.52;6.22;;;18.10;96.00;;;;;;5055284;28;20067;-52
2023/06/17 07:02:37;;;;;;;10.25;5.90;;;18.20;95.90;;;;;;5054277;28;20140;-48
2023/06/17 07:05:04;;;;;;;7.63;5.75;;;18.20;95.80;;;;;;5037842;28;20132;-52
2023/06/17 07:07:37;;;;;;;9.52;5.43;;;18.30;95.80;;;;;;5054147;28;20417;-49
2023/06/17 07:10:05;;;;;;;8.95;5.18;;;18.40;95.70;;;;;;5053815;28;20056;-53
2023/06/17 07:12:32;;;;;;;8.73;5.10;;;18.40;95.70;;;;;;5053897;28;20047;-51
2023/06/17 07:14:59;;;;;;;11.30;4.70;;;18.50;95.60;;;;;;5053883;28;20056;-49
2023/06/17 07:17:26;;;;;;;10.40;5.20;;;18.70;95.50;;;;;;5054162;28;20484;-49
2023/06/17 07:19:55;;;;;;;7.70;4.75;;;18.80;95.10;;;;;;5050306;28;20044;-48
2023/06/17 07:22:21;;;;;;;7.22;4.32;;;18.90;95.00;;;;;;5061284;28;20060;-50
2023/06/17 07:24:48;;;;;;;8.20;4.35;;;18.90;95.00;;;;;;5054040;28;20060;-53
2023/06/17 07:27:16;;;;;;;7.53;3.95;;;19.00;95.00;;;;;;5054019;28;20045;-52
2023/06/17 07:29:43;;;;;;;9.43;4.43;;;19.10;94.90;;;;;;5070447;28;20052;-52
2023/06/17 07:32:11;;;;;;;7.07;3.97;;;19.10;94.70;;;;;;5040597;28;20170;-52
2023/06/17 07:34:38;;;;;;;10.50;3.88;;;19.10;94.70;;;;;;5054954;28;20056;-52
2023/06/17 07:37:05;;;;;;;5.90;3.88;;;19.20;94.80;;;;;;5053564;28;20047;-50
2023/06/17 07:39:33;;;;;;;8.30;4.07;;;19.30;94.70;;;;;;5052876;28;20429;-50
2023/06/17 07:41:59;;;;;;;6.57;3.90;;;19.50;94.60;;;;;;5053882;28;20037;-50
2023/06/17 07:44:26;;;;;;;7.65;3.75;;;19.60;94.50;;;;;;5054846;28;20045;-53
2023/06/17 07:46:53;;;;;;;7.00;3.90;;;19.70;94.30;;;;;;5054187;28;20052;-49
2023/06/17 07:49:20;;;;;;;6.53;3.85;;;19.80;94.10;;;;;;5053945;28;20474;-50
2023/06/17 07:51:47;;;;;;;13.65;4.07;;;19.80;94.00;;;;;;5054896;28;20053;-48
2023/06/17 07:54:15;;;;;;;8.00;3.50;;;19.90;93.90;;;;;;5054192;28;20542;-50
2023/06/17 07:56:42;;;;;;;7.45;3.63;;;19.90;94.00;;;;;;5059983;28;20060;-49
2023/06/17 07:59:09;;;;;;;10.20;3.40;;;20.00;94.00;;;;;;5054103;28;20096;-50
2023/06/17 08:01:37;;;;;;;5.93;3.60;;;20.00;93.90;;;;;;5053223;28;20395;-49
2023/06/17 08:04:03;;;;;;;6.32;3.17;;;20.10;93.80;;;;;;5054521;28;20090;-49
2023/06/17 08:06:30;;;;;;;6.63;3.35;;;20.20;93.80;;;;;;5054662;28;20045;-48
2023/06/17 08:08:57;;;;;;;8.27;3.50;;;20.30;93.90;;;;;;5054523;28;20045;-51
2023/06/17 08:11:24;;;;;;;8.18;3.53;;;20.40;93.80;;;;;;5054524;28;20461;-51
2023/06/17 08:13:51;;;;;;;8.23;3.90;;;20.50;93.60;;;;;;5054217;28;20040;-50
2023/06/17 08:16:17;;;;;;;10.02;3.83;;;20.60;93.60;;;;;;5054314;28;20041;-53
2023/06/17 08:18:44;;;;;;;8.70;3.53;;;20.70;93.50;;;;;;5054153;28;20041;-49
2023/06/17 08:21:11;;;;;;;8.32;4.05;;;20.90;93.60;;;;;;5053948;28;20036;-54
2023/06/17 08:23:38;;;;;;;9.02;3.65;;;20.90;93.40;;;;;;5053387;28;20032;-46
2023/06/17 08:26:05;;;;;;;6.00;3.60;;;21.00;93.30;;;;;;5054458;28;20072;-51
2023/06/17 08:28:32;;;;;;;6.80;3.60;;;21.00;93.10;;;;;;5054025;28;20430;-49
2023/06/17 08:30:59;;;;;;;12.27;3.80;;;21.10;93.40;;;;;;5052008;28;20099;-53
2023/06/17 08:33:26;;;;;;;8.77;4.15;;;21.20;93.00;;;;;;5052788;28;20823;-48
2023/06/17 08:35:53;;;;;;;10.18;3.42;;;21.10;93.10;;;;;;5052099;28;20040;-54
2023/06/17 08:38:20;;;;;;;8.20;3.53;;;21.10;93.20;;;;;;5053962;28;20096;-51
2023/06/17 08:40:47;;;;;;;7.57;3.60;;;21.00;93.20;;;;;;5053751;28;20041;-51
2023/06/17 08:43:14;;;;;;;10.75;3.50;;;21.00;93.40;;;;;;5053138;28;20072;-47
2023/06/17 08:45:40;;;;;;;9.25;3.60;;;21.20;93.50;;;;;;5053589;28;20041;-51
2023/06/17 08:48:07;;;;;;;11.40;3.67;;;21.30;93.00;;;;;;5053300;28;20111;-51
2023/06/17 08:50:34;;;;;;;8.55;3.70;;;21.30;93.20;;;;;;5053447;28;20041;-50
2023/06/17 08:53:01;;;;;;;8.40;3.95;;;21.40;92.80;;;;;;5052277;28;20087;-53
2023/06/17 08:55:28;;;;;;;9.43;3.47;;;21.50;92.70;;;;;;5053762;28;20045;-49
2023/06/17 08:57:54;;;;;;;11.90;3.85;;;21.50;93.00;;;;;;5053209;28;20381;-50
2023/06/17 09:00:21;;;;;;;5.68;3.20;;;21.50;92.80;;;;;;5053134;28;20390;-49
2023/06/17 09:02:49;;;;;;;6.70;3.42;;;21.50;92.90;;;;;;5053430;28;20091;-48
2023/06/17 09:05:16;;;;;;;7.70;3.70;;;21.40;93.20;;;;;;5053688;28;20040;-51
2023/06/17 09:07:43;;;;;;;8.90;3.70;;;21.60;93.10;;;;;;5053498;28;20403;-50
2023/06/17 09:10:10;;;;;;;10.40;3.55;;;21.70;93.00;;;;;;5053540;28;20147;-53
2023/06/17 09:12:37;;;;;;;5.55;3.30;;;21.60;93.00;;;;;;5053481;28;20051;-52
2023/06/17 09:15:04;;;;;;;5.85;3.40;;;21.70;93.20;;;;;;5053317;28;20065;-51
2023/06/17 09:17:31;;;;;;;7.75;3.97;;;21.90;93.10;;;;;;5053169;28;20091;-49
2023/06/17 09:19:58;;;;;;;5.20;3.40;;;22.10;92.70;;;;;;5053357;28;20034;-48
2023/06/17 09:22:25;;;;;;;8.63;3.80;;;22.10;92.60;;;;;;5053243;28;20045;-46
2023/06/17 09:24:52;;;;;;;5.88;3.78;;;22.30;92.30;;;;;;5052549;28;20041;-47
2023/06/17 09:27:19;;;;;;;8.63;3.72;;;22.40;92.20;;;;;;5053463;28;20488;-49
2023/06/17 09:29:48;;;;;;;8.80;3.90;;;22.50;91.50;;;;;;5052757;28;20102;-50
2023/06/17 09:32:15;;;;;;;6.75;3.50;;;22.60;91.30;;;;;;5053211;28;20094;-49
2023/06/17 09:34:42;;;;;;;7.80;4.22;;;22.80;91.30;;;;;;5053240;28;20051;-53
2023/06/17 09:37:09;;;;;;;8.55;4.05;;;23.00;91.00;;;;;;5053125;28;20044;-50
2023/06/17 09:39:35;;;;;;;8.85;4.20;;;23.10;90.90;;;;;;5052492;28;20049;-50
2023/06/17 09:42:02;;;;;;;8.02;4.65;;;23.30;90.60;;;;;;5051755;28;20135;-50
2023/06/17 09:44:29;;;;;;;6.88;4.13;;;23.40;90.10;;;;;;5052935;28;20041;-52
2023/06/17 09:46:58;;;;;;;6.45;4.18;;;23.20;90.10;;;;;;5052954;28;20365;-52
2023/06/17 09:49:25;;;;;;;7.55;3.90;;;23.10;90.20;;;;;;5053129;28;20510;-52
2023/06/17 09:51:52;;;;;;;7.80;4.35;;;23.00;90.60;;;;;;5052960;28;20127;-49
2023/06/17 09:54:19;;;;;;;6.80;4.47;;;23.00;90.50;;;;;;5052480;28;20095;-52
2023/06/17 09:56:46;;;;;;;7.38;4.65;;;23.00;90.40;;;;;;5051719;28;20060;-53
2023/06/17 09:59:13;;;;;;;8.10;4.35;;;23.10;90.50;;;;;;5052741;28;20041;-54
2023/06/17 10:01:40;;;;;;;6.78;4.03;;;23.10;90.40;;;;;;5052936;28;20037;-49
2023/06/17 10:04:09;;;;;;;8.93;4.40;;;23.10;90.50;;;;;;5045199;28;20045;-52
2023/06/17 10:06:36;;;;;;;12.20;5.30;;;23.30;90.30;;;;;;5053031;28;20041;-50
2023/06/17 10:09:04;;;;;;;6.75;4.75;;;23.20;89.20;;;;;;5052929;28;20076;-51
2023/06/17 10:11:31;;;;;;;6.95;4.85;;;23.30;89.60;;;;;;5054164;28;20068;-52
2023/06/17 10:13:57;;;;;;;8.10;4.68;;;23.30;89.30;;;;;;5056690;28;20491;-49
2023/06/17 10:16:25;;;;;;;6.35;4.22;;;23.30;89.40;;;;;;5055419;28;20045;-51
2023/06/17 10:18:52;;;;;;;8.30;4.78;;;23.30;89.40;;;;;;5056344;28;20040;-47
2023/06/17 10:21:18;;;;;;;12.98;4.70;;;23.40;89.00;;;;;;5056638;28;20037;-52
2023/06/17 10:23:45;;;;;;;12.48;5.63;;;23.50;89.60;;;;;;5056630;28;20044;-51
2023/06/17 10:26:12;;;;;;;11.60;5.25;;;23.60;88.40;;;;;;5056652;28;20421;-49
2023/06/17 10:28:39;;;;;;;12.88;5.22;;;23.70;88.40;;;;;;5056483;28;20106;-48
2023/06/17 10:31:06;;;;;;;10.48;4.75;;;23.70;87.70;;;;;;5056367;28;20045;-52
2023/06/17 10:33:33;;;;;;;10.80;5.97;;;23.80;87.60;;;;;;5056216;28;20052;-47
2023/06/17 10:36:00;;;;;;;10.45;5.60;;;23.90;86.70;;;;;;5056284;28;20049;-50
2023/06/17 10:38:26;;;;;;;7.53;6.10;;;23.80;86.40;;;;;;5056444;28;20118;-51
2023/06/17 10:40:53;;;;;;;8.27;5.57;;;23.80;86.30;;;;;;5056301;28;20037;-52
2023/06/17 10:43:20;;;;;;;11.45;5.65;;;23.60;86.50;;;;;;5056499;28;20045;-47
2023/06/17 10:45:48;;;;;;;12.38;5.90;;;23.60;86.80;;;;;;5054934;28;20052;-50
2023/06/17 10:48:15;;;;;;;8.95;6.00;;;23.60;87.00;;;;;;5056035;28;20049;-49
2023/06/17 10:50:41;;;;;;;8.40;5.22;;;23.70;86.90;;;;;;5055250;28;20045;-53
2023/06/17 10:53:08;;;;;;;9.65;5.80;;;23.80;86.80;;;;;;5055467;28;20041;-51
2023/06/17 10:55:35;;;;;;;8.15;5.30;;;23.80;85.90;;;;;;5056073;28;20547;-50
2023/06/17 10:58:02;;;;;;;10.55;5.68;;;23.80;86.30;;;;;;5055793;28;20041;-53
2023/06/17 11:00:30;;;;;;;7.97;5.90;;;23.80;85.60;;;;;;5056088;28;20040;-49
2023/06/17 11:02:56;;;;;;;8.68;5.18;;;23.90;85.80;;;;;;5055741;28;20036;-49
2023/06/17 11:05:23;;;;;;;8.50;5.53;;;24.00;85.80;;;;;;5055874;28;20037;-48
2023/06/17 11:07:50;;;;;;;8.13;5.57;;;24.10;85.00;;;;;;5055874;28;20083;-51
2023/06/17 11:10:18;;;;;;;10.68;5.50;;;24.00;86.20;;;;;;5055609;28;20408;-50
2023/06/17 11:12:46;;;;;;;9.93;5.57;;;24.00;86.80;;;;;;5055240;28;20103;-50
2023/06/17 11:15:15;;;;;;;9.25;5.60;;;24.10;85.90;;;;;;5054773;28;20060;-53
2023/06/17 11:17:42;;;;;;;7.22;4.70;;;24.20;85.70;;;;;;5054883;28;20037;-53
2023/06/17 11:20:09;;;;;;;7.93;5.15;;;24.30;86.30;;;;;;5055395;28;20045;-51
2023/06/17 11:22:37;;;;;;;10.07;5.50;;;24.20;86.80;;;;;;5054181;28;20037;-52
2023/06/17 11:25:03;;;;;;;6.30;5.07;;;24.30;86.90;;;;;;5055241;28;20091;-52
2023/06/17 11:27:30;;;;;;;9.55;5.40;;;24.40;85.60;;;;;;5055101;28;20041;-50
2023/06/17 11:29:57;;;;;;;7.28;5.05;;;24.50;84.60;;;;;;5054121;28;20454;-52
2023/06/17 11:32:24;;;;;;;5.68;4.57;;;24.40;85.70;;;;;;5054077;28;20128;-53
2023/06/17 11:34:51;;;;;;;9.20;4.80;;;24.50;86.20;;;;;;5053670;28;20456;-49
2023/06/17 11:37:18;;;;;;;9.25;4.60;;;24.80;85.70;;;;;;5054220;28;20041;-51
2023/06/17 11:39:45;;;;;;;12.85;5.70;;;24.90;85.00;;;;;;5054334;28;20044;-53
2023/06/17 11:42:12;;;;;;;11.98;5.68;;;25.00;83.90;;;;;;5054164;28;20472;-50
2023/06/17 11:44:38;;;;;;;7.40;5.22;;;24.90;84.30;;;;;;5055226;28;20060;-51
2023/06/17 11:47:06;;;;;;;11.40;5.60;;;24.90;84.00;;;;;;5055283;28;20041;-53
2023/06/17 11:49:33;;;;;;;12.95;5.47;;;24.90;83.40;;;;;;5055069;28;20041;-49
2023/06/17 11:52:01;;;;;;;10.30;5.75;;;24.80;83.80;;;;;;5054502;28;20037;-48
2023/06/17 11:54:29;;;;;;;10.05;5.28;;;24.70;83.70;;;;;;5055010;28;20204;-51
2023/06/17 11:56:55;;;;;;;8.10;5.40;;;24.60;85.00;;;;;;5054873;28;20487;-53
2023/06/17 11:59:22;;;;;;;10.68;5.25;;;24.60;85.40;;;;;;5053689;28;20045;-53
2023/06/17 12:01:49;;;;;;;8.95;5.50;;;24.60;85.70;;;;;;5054716;28;20048;-53
2023/06/17 12:04:16;;;;;;;8.25;5.18;;;24.80;85.40;;;;;;5054557;28;20037;-50
2023/06/17 12:06:43;;;;;;;7.97;5.80;;;24.80;85.20;;;;;;5054615;28;20041;-47
2023/06/17 12:09:10;;;;;;;11.00;5.78;;;24.80;85.40;;;;;;5054538;28;20504;-49
2023/06/17 12:11:41;;;;;;;7.05;5.00;;;24.90;85.60;;;;;;5054683;28;20388;-52
2023/06/17 12:14:08;;;;;;;6.55;4.75;;;25.00;85.30;;;;;;5054768;28;20045;-50
2023/06/17 12:16:34;;;;;;;12.77;6.20;;;25.20;84.60;;;;;;5054615;28;20041;-53
2023/06/17 12:19:01;;;;;;;7.43;4.95;;;25.40;84.70;;;;;;5054400;28;20037;-53
2023/06/17 12:21:28;;;;;;;10.82;6.40;;;25.50;84.40;;;;;;5054665;28;20124;-54
2023/06/17 12:23:55;;;;;;;8.82;5.32;;;25.50;83.20;;;;;;5054314;28;20048;-52
2023/06/17 12:26:25;;;;;;;7.75;5.20;;;25.40;82.30;;;;;;5054587;28;20045;-52
2023/06/17 12:28:52;;;;;;;9.18;5.57;;;25.30;83.50;;;;;;5054257;28;20037;-52
2023/06/17 12:31:19;;;;;;;7.35;5.50;;;25.30;83.30;;;;;;5054616;28;20051;-49
2023/06/17 12:33:49;;;;;;;8.98;5.70;;;25.20;83.60;;;;;;5053825;28;20043;-50
2023/06/17 12:36:16;;;;;;;8.68;5.53;;;25.10;83.30;;;;;;5054096;28;20041;-49